createdAt,value
2018-11-12T00:00:47.040Z,20.92
2018-11-12T00:03:16.346Z,20.50
2018-11-12T00:05:45.403Z,21.27
2018-11-12T00:08:14.586Z,20.52
2018-11-12T00:10:43.700Z,21.70
2018-11-12T00:13:12.841Z,20.57
2018-11-12T00:15:41.922Z,21.42
2018-11-12T00:18:11.048Z,21.12
2018-11-12T00:20:40.485Z,20.55
2018-11-12T00:23:09.561Z,21.90
2018-11-12T00:25:38.783Z,22.10
2018-11-12T00:28:08.298Z,22.22
2018-11-12T00:30:37.323Z,22.22
2018-11-12T00:33:06.402Z,21.40
2018-11-12T00:35:35.773Z,21.52
2018-11-12T00:38:06.021Z,22.77
2018-11-12T00:40:35.087Z,21.82
2018-11-12T00:43:04.211Z,21.73
2018-11-12T00:45:33.546Z,23.27
2018-11-12T00:48:02.809Z,21.40
2018-11-12T00:50:31.981Z,22.30
2018-11-12T00:53:01.202Z,22.37
2018-11-12T00:55:31.137Z,22.05
2018-11-12T00:58:00.212Z,22.07
2018-11-12T01:00:29.343Z,22.27
2018-11-12T01:02:58.592Z,23.35
2018-11-12T01:05:27.888Z,22.87
2018-11-12T01:07:57.036Z,23.35
2018-11-12T01:10:26.177Z,21.75
2018-11-12T01:12:55.121Z,22.07
2018-11-12T01:15:24.302Z,22.70
2018-11-12T01:17:53.521Z,21.48
2018-11-12T01:20:22.785Z,22.17
2018-11-12T01:22:51.883Z,22.25
2018-11-12T01:25:20.972Z,22.85
2018-11-12T01:27:50.350Z,22.32
2018-11-12T01:30:19.638Z,22.67
2018-11-12T01:32:48.761Z,23.38
2018-11-12T01:35:18.617Z,22.48
2018-11-12T01:37:48.067Z,22.77
2018-11-12T01:40:17.416Z,21.93
2018-11-12T01:42:46.730Z,22.00
2018-11-12T01:45:16.984Z,22.90
2018-11-12T01:47:47.447Z,22.45
2018-11-12T01:50:17.185Z,21.95
2018-11-12T01:52:47.200Z,22.20
2018-11-12T01:55:17.450Z,22.70
2018-11-12T01:57:46.825Z,22.30
2018-11-12T02:00:20.472Z,22.65
2018-11-12T02:02:50.654Z,22.37
2018-11-12T02:05:20.089Z,22.85
2018-11-12T02:07:49.445Z,22.50
2018-11-12T02:10:19.263Z,22.20
2018-11-12T02:12:49.069Z,22.05
2018-11-12T02:15:20.278Z,23.83
2018-11-12T02:17:49.980Z,22.25
2018-11-12T02:20:20.408Z,21.20
2018-11-12T02:22:56.214Z,22.67
2018-11-12T02:25:25.312Z,22.00
2018-11-12T02:27:54.711Z,22.75
2018-11-12T02:30:29.183Z,22.22
2018-11-12T02:32:58.311Z,21.82
2018-11-12T02:35:28.204Z,22.13
2018-11-12T02:37:57.332Z,21.23
2018-11-12T02:40:26.379Z,21.30
2018-11-12T02:42:55.481Z,21.50
2018-11-12T02:45:24.634Z,22.07
2018-11-12T02:47:53.912Z,21.15
2018-11-12T02:50:22.884Z,22.52
2018-11-12T02:52:52.212Z,20.77
2018-11-12T02:55:21.375Z,22.13
2018-11-12T02:57:50.575Z,21.35
2018-11-12T03:00:22.990Z,21.62
2018-11-12T03:02:52.252Z,21.87
2018-11-12T03:05:21.256Z,21.33
2018-11-12T03:07:50.474Z,21.95
2018-11-12T03:10:21.711Z,21.95
2018-11-12T03:12:51.241Z,22.45
2018-11-12T03:15:21.010Z,21.68
2018-11-12T03:17:50.889Z,22.40
2018-11-12T03:20:21.415Z,23.00
2018-11-12T03:22:50.632Z,21.90
2018-11-12T03:25:20.843Z,22.15
2018-11-12T03:27:50.430Z,21.70
2018-11-12T03:30:20.985Z,21.87
2018-11-12T03:32:50.674Z,22.07
2018-11-12T03:35:20.355Z,21.20
2018-11-12T03:37:50.523Z,22.58
2018-11-12T03:40:21.043Z,20.72
2018-11-12T03:42:50.811Z,21.20
2018-11-12T03:45:22.134Z,22.00
2018-11-12T03:47:51.423Z,21.20
2018-11-12T03:50:21.649Z,21.62
2018-11-12T03:52:51.006Z,20.25
2018-11-12T03:55:21.312Z,22.15
2018-11-12T03:57:50.445Z,21.68
2018-11-12T04:00:21.728Z,21.80
2018-11-12T04:02:50.719Z,22.13
2018-11-12T04:05:20.091Z,21.70
2018-11-12T04:07:49.274Z,20.72
2018-11-12T04:10:19.741Z,22.50
2018-11-12T04:12:49.050Z,20.52
2018-11-12T04:15:19.570Z,21.93
2018-11-12T04:17:49.179Z,22.02
2018-11-12T04:20:19.612Z,20.70
2018-11-12T04:22:54.461Z,22.37
2018-11-12T04:25:23.863Z,22.07
2018-11-12T04:27:54.775Z,22.25
2018-11-12T04:30:23.986Z,23.07
2018-11-12T04:32:53.269Z,21.23
2018-11-12T04:35:26.949Z,21.80
2018-11-12T04:37:56.825Z,21.62
2018-11-12T04:40:25.980Z,22.27
2018-11-12T04:42:55.252Z,21.33
2018-11-12T04:45:25.072Z,21.55
2018-11-12T04:47:54.640Z,21.10
2018-11-12T04:50:25.025Z,21.25
2018-11-12T04:52:54.686Z,20.95
2018-11-12T04:55:24.482Z,21.33
2018-11-12T04:57:53.687Z,22.77
2018-11-12T05:00:24.039Z,21.15
2018-11-12T05:02:53.312Z,22.20
2018-11-12T05:05:23.635Z,22.17
2018-11-12T05:07:52.993Z,21.90
2018-11-12T05:10:23.245Z,21.00
2018-11-12T05:12:52.970Z,22.13
2018-11-12T05:15:23.634Z,21.15
2018-11-12T05:17:53.270Z,22.17
2018-11-12T05:20:25.254Z,22.17
2018-11-12T05:22:54.761Z,22.22
2018-11-12T05:25:23.942Z,22.02
2018-11-12T05:27:53.509Z,21.90
2018-11-12T05:30:25.585Z,22.40
2018-11-12T05:32:55.245Z,21.48
2018-11-12T05:35:25.666Z,21.57
2018-11-12T05:37:55.046Z,21.02
2018-11-12T05:40:28.569Z,21.68
2018-11-12T05:42:58.280Z,21.52
2018-11-12T05:45:28.605Z,20.75
2018-11-12T05:47:58.031Z,22.20
2018-11-12T05:50:28.681Z,20.82
2018-11-12T05:53:00.260Z,21.15
2018-11-12T05:55:30.252Z,22.02
2018-11-12T05:57:59.683Z,20.55
2018-11-12T06:00:34.132Z,21.12
2018-11-12T06:03:03.400Z,21.42
2018-11-12T06:05:33.314Z,20.72
2018-11-12T06:08:02.888Z,19.77
2018-11-12T06:10:32.906Z,21.55
2018-11-12T06:13:02.077Z,21.40
2018-11-12T06:15:31.513Z,21.40
2018-11-12T06:18:00.638Z,20.88
2018-11-12T06:20:32.604Z,20.32
2018-11-12T06:23:01.804Z,20.30
2018-11-12T06:25:34.178Z,20.32
2018-11-12T06:28:03.512Z,19.95
2018-11-12T06:30:34.033Z,21.97
2018-11-12T06:33:03.411Z,19.82
2018-11-12T06:35:33.937Z,20.60
2018-11-12T06:38:03.328Z,20.85
2018-11-12T06:40:32.760Z,20.00
2018-11-12T06:43:02.115Z,20.52
2018-11-12T06:45:32.755Z,20.20
2018-11-12T06:48:02.899Z,20.80
2018-11-12T06:50:34.144Z,20.68
2018-11-12T06:53:06.985Z,19.65
2018-11-12T06:55:42.348Z,19.65
2018-11-12T06:58:14.013Z,21.17
2018-11-12T07:00:43.332Z,20.60
2018-11-12T07:03:12.414Z,19.98
2018-11-12T07:05:41.913Z,20.48
2018-11-12T07:08:11.101Z,19.32
2018-11-12T07:10:41.556Z,19.85
2018-11-12T07:13:29.228Z,19.30
2018-11-12T07:16:18.120Z,19.55
2018-11-12T07:19:04.366Z,19.77
2018-11-12T07:21:33.429Z,19.98
2018-11-12T07:24:02.579Z,18.70
2018-11-12T07:26:31.843Z,23.62
2018-11-12T07:29:02.811Z,29.23
2018-11-12T07:31:32.679Z,29.40
2018-11-12T07:34:01.879Z,31.93
2018-11-12T07:36:31.031Z,33.20
2018-11-12T07:39:00.400Z,31.20
2018-11-12T07:41:29.546Z,32.58
2018-11-12T07:44:05.627Z,33.33
2018-11-12T07:46:34.785Z,32.55
2018-11-12T07:49:03.952Z,30.52
2018-11-12T07:51:33.233Z,31.25
2018-11-12T07:54:02.495Z,31.02
2018-11-12T07:56:31.840Z,32.85
2018-11-12T07:59:00.954Z,31.62
2018-11-12T08:01:30.115Z,30.48
2018-11-12T08:03:59.310Z,29.20
2018-11-12T08:06:28.443Z,30.23
2018-11-12T08:08:57.759Z,29.65
2018-11-12T08:11:26.964Z,30.43
2018-11-12T08:13:56.192Z,29.77
2018-11-12T08:16:25.634Z,30.05
2018-11-12T08:18:54.602Z,30.48
2018-11-12T08:21:23.932Z,29.30
2018-11-12T08:23:53.499Z,27.77
2018-11-12T08:26:22.611Z,27.02
2018-11-12T08:28:51.908Z,26.75
2018-11-12T08:31:20.926Z,25.82
2018-11-12T08:33:50.150Z,24.80
2018-11-12T08:36:19.351Z,23.02
2018-11-12T08:38:48.624Z,23.10
2018-11-12T08:41:17.749Z,21.70
2018-11-12T08:43:46.802Z,22.05
2018-11-12T08:46:16.081Z,21.23
2018-11-12T08:48:45.357Z,20.32
2018-11-12T08:51:14.514Z,20.82
2018-11-12T08:53:43.774Z,19.30
2018-11-12T08:56:12.999Z,20.12
2018-11-12T08:58:43.417Z,18.82
2018-11-12T09:01:12.561Z,21.12
2018-11-12T09:03:41.612Z,22.02
2018-11-12T09:06:10.930Z,20.70
2018-11-12T09:20:33.408Z,21.45
2018-11-12T09:23:02.571Z,21.70
2018-11-12T09:25:31.690Z,21.17
2018-11-12T09:28:00.924Z,20.20
2018-11-12T09:30:30.563Z,20.02
2018-11-12T09:32:59.467Z,20.40
2018-11-12T09:35:29.986Z,19.12
2018-11-12T09:38:00.228Z,19.07
2018-11-12T09:40:30.942Z,19.10
2018-11-12T09:43:00.221Z,19.75
2018-11-12T09:45:29.463Z,19.90
2018-11-12T09:47:58.934Z,19.00
2018-11-12T09:50:28.425Z,19.62
2018-11-12T09:52:58.600Z,18.67
2018-11-12T09:55:28.917Z,18.05
2018-11-12T09:58:01.432Z,16.77
2018-11-12T10:00:30.685Z,15.20
2018-11-12T10:03:00.800Z,15.80
2018-11-12T10:05:30.130Z,15.60
2018-11-12T10:08:05.193Z,16.52
2018-11-12T10:10:36.702Z,14.68
2018-11-12T10:13:07.011Z,14.93
2018-11-12T10:15:36.864Z,14.05
2018-11-12T10:18:06.207Z,15.15
2018-11-12T10:20:33.393Z,14.18
2018-11-12T10:23:02.486Z,13.10
2018-11-12T10:25:32.597Z,13.35
2018-11-12T10:28:02.051Z,13.53
2018-11-12T10:30:31.330Z,12.68
2018-11-12T10:33:00.414Z,13.98
2018-11-12T10:35:29.646Z,14.20
2018-11-12T10:37:58.776Z,13.48
2018-11-12T10:40:27.911Z,13.62
2018-11-12T10:42:57.129Z,12.58
2018-11-12T10:45:27.853Z,12.30
2018-11-12T10:47:57.026Z,12.90
2018-11-12T10:50:26.138Z,13.32
2018-11-12T10:52:55.234Z,13.28
2018-11-12T10:55:25.409Z,16.07
2018-11-12T10:57:54.679Z,14.40
2018-11-12T11:00:32.683Z,14.07
2018-11-12T11:03:07.734Z,13.90
2018-11-12T11:05:37.869Z,12.05
2018-11-12T11:08:07.047Z,12.53
2018-11-12T11:10:36.174Z,12.60
2018-11-12T11:13:05.857Z,12.50
2018-11-12T11:15:36.581Z,11.28
2018-11-12T11:18:05.803Z,10.90
2018-11-12T11:20:35.274Z,11.33
2018-11-12T11:23:04.261Z,11.63
2018-11-12T13:09:27.505Z,11.33
2018-11-12T13:11:57.064Z,11.22
2018-11-12T13:14:26.229Z,11.68
2018-11-12T13:16:55.260Z,11.60
2018-11-12T13:19:24.607Z,13.30
2018-11-12T13:21:53.721Z,12.30
2018-11-12T13:24:23.075Z,12.50
2018-11-12T13:26:52.375Z,12.75
2018-11-12T13:29:21.992Z,12.23
2018-11-12T13:31:51.188Z,11.80
2018-11-12T13:34:20.434Z,12.53
2018-11-12T13:36:49.710Z,11.93
2018-11-12T13:39:19.608Z,12.28
2018-11-12T13:41:52.573Z,12.43
2018-11-12T13:44:23.743Z,13.43
2018-11-12T13:46:59.256Z,11.57
2018-11-12T13:49:34.176Z,12.80
2018-11-12T13:52:03.832Z,12.23
2018-11-12T13:54:33.977Z,11.95
2018-11-12T13:57:03.473Z,12.07
2018-11-12T13:59:32.523Z,11.93
2018-11-12T14:02:01.677Z,13.62
2018-11-12T14:04:31.538Z,12.35
2018-11-12T14:07:01.718Z,13.48
2018-11-12T14:09:30.569Z,12.63
2018-11-12T14:11:59.776Z,13.55
2018-11-12T14:14:28.859Z,12.85
2018-11-12T14:16:58.709Z,12.65
2018-11-12T14:19:27.911Z,12.63
2018-11-12T14:21:57.139Z,13.40
2018-11-12T14:24:26.458Z,13.38
2018-11-12T14:26:55.496Z,13.65
2018-11-12T14:29:24.770Z,13.32
2018-11-12T14:31:53.933Z,13.43
2018-11-12T14:34:23.712Z,14.03
2018-11-12T14:36:53.255Z,13.48
2018-11-12T14:39:22.375Z,12.15
2018-11-12T14:41:51.575Z,12.45
2018-11-12T14:44:21.076Z,11.78
2018-11-12T14:46:50.182Z,11.95
2018-11-12T14:49:19.864Z,11.20
2018-11-12T14:51:49.004Z,10.90
2018-11-12T14:54:19.863Z,11.10
2018-11-12T14:56:49.525Z,11.60
2018-11-12T14:59:18.961Z,11.70
2018-11-12T15:01:48.086Z,11.83
2018-11-12T15:04:17.122Z,10.68
2018-11-12T15:06:48.880Z,10.40
2018-11-12T15:09:20.961Z,11.22
2018-11-12T15:11:50.237Z,10.43
2018-11-12T15:14:19.259Z,11.18
2018-11-12T15:16:48.293Z,10.98
2018-11-12T15:19:17.385Z,11.22
2018-11-12T15:21:46.998Z,10.63
2018-11-12T15:24:16.768Z,10.05
2018-11-12T15:26:45.949Z,10.93
2018-11-12T15:29:15.232Z,10.50
2018-11-12T15:31:44.703Z,10.28
2018-11-12T15:34:13.739Z,10.63
2018-11-12T15:36:42.928Z,10.28
2018-11-12T15:39:12.250Z,10.58
2018-11-12T15:41:41.344Z,10.23
2018-11-12T15:44:10.462Z,10.93
2018-11-12T15:46:40.240Z,10.80
2018-11-12T15:49:10.028Z,10.80
2018-11-12T15:51:41.296Z,12.00
2018-11-12T15:54:11.837Z,11.78
2018-11-12T15:56:42.117Z,11.70
2018-11-12T15:59:11.714Z,11.70
2018-11-12T16:01:40.864Z,11.48
2018-11-12T16:04:10.178Z,12.07
2018-11-12T16:06:39.369Z,13.50
2018-11-12T16:09:10.068Z,12.98
2018-11-12T16:11:41.975Z,13.53
2018-11-12T16:14:11.129Z,12.70
2018-11-12T16:16:40.307Z,12.43
2018-11-12T16:19:10.414Z,12.43
2018-11-12T16:21:39.668Z,12.30
2018-11-12T16:24:08.776Z,12.23
2018-11-12T16:26:38.071Z,12.20
2018-11-12T16:29:07.185Z,12.58
2018-11-12T16:31:36.521Z,12.23
2018-11-12T16:34:05.643Z,12.50
2018-11-12T16:36:35.903Z,13.18
2018-11-12T16:39:07.186Z,11.95
2018-11-12T16:41:36.112Z,12.53
2018-11-12T16:44:05.355Z,11.90
2018-11-12T16:46:34.709Z,12.90
2018-11-12T16:49:04.013Z,12.68
2018-11-12T16:51:33.075Z,12.75
2018-11-12T16:54:02.309Z,12.73
2018-11-12T16:56:32.084Z,12.47
2018-11-12T16:59:01.452Z,12.65
2018-11-12T17:01:30.802Z,12.60
2018-11-12T17:03:59.843Z,12.35
2018-11-12T17:06:29.513Z,12.43
2018-11-12T17:09:00.171Z,13.20
2018-11-12T17:11:29.568Z,12.70
2018-11-12T17:13:58.893Z,12.90
2018-11-12T17:16:28.316Z,12.65
2018-11-12T17:18:57.449Z,12.43
2018-11-12T17:21:26.676Z,13.62
2018-11-12T17:23:55.937Z,12.80
2018-11-12T17:26:25.193Z,14.73
2018-11-12T17:28:54.347Z,13.10
2018-11-12T17:31:23.641Z,13.90
2018-11-12T17:33:52.834Z,14.13
2018-11-12T17:36:22.143Z,13.68
2018-11-12T17:38:51.272Z,12.47
2018-11-12T17:41:20.719Z,13.32
2018-11-12T17:43:49.763Z,13.55
2018-11-12T17:46:19.965Z,13.83
2018-11-12T17:48:49.250Z,13.43
2018-11-12T17:51:18.391Z,13.83
2018-11-12T17:53:47.534Z,13.50
2018-11-12T17:56:16.638Z,14.53
2018-11-12T17:58:45.940Z,15.40
2018-11-12T18:01:15.320Z,14.98
2018-11-12T18:03:44.418Z,16.85
2018-11-12T18:06:13.716Z,16.42
2018-11-12T18:08:42.813Z,16.87
2018-11-12T18:11:12.103Z,16.65
2018-11-12T18:13:41.470Z,15.70
2018-11-12T18:16:10.728Z,16.07
2018-11-12T18:18:39.803Z,15.10
2018-11-12T18:21:09.262Z,15.45
2018-11-12T18:23:38.458Z,16.30
2018-11-12T18:26:11.781Z,15.78
2018-11-12T18:28:41.994Z,16.42
2018-11-12T18:31:15.647Z,16.30
2018-11-12T18:33:46.681Z,16.52
2018-11-12T18:36:22.621Z,17.45
2018-11-12T18:38:58.697Z,17.05
2018-11-12T18:41:36.140Z,16.62
2018-11-12T18:44:06.202Z,17.82
2018-11-12T18:46:35.396Z,17.45
2018-11-12T18:49:04.757Z,19.23
2018-11-12T18:51:37.335Z,19.60
2018-11-12T18:54:11.235Z,19.37
2018-11-12T18:56:40.504Z,19.23
2018-11-12T18:59:11.302Z,20.62
2018-11-12T19:01:42.002Z,19.73
2018-11-12T19:04:11.031Z,20.75
2018-11-12T19:06:40.093Z,19.32
2018-11-12T19:09:09.943Z,19.40
2018-11-12T19:11:39.045Z,20.62
2018-11-12T19:14:08.477Z,21.37
2018-11-12T19:16:37.678Z,21.23
2018-11-12T19:19:06.785Z,21.62
2018-11-12T19:21:36.032Z,20.90
2018-11-12T19:24:05.304Z,21.33
2018-11-12T19:26:34.332Z,20.30
2018-11-12T19:29:03.477Z,20.55
2018-11-12T19:31:32.635Z,21.48
2018-11-12T19:34:01.603Z,21.30
2018-11-12T19:36:30.595Z,21.02
2018-11-12T19:38:59.725Z,20.60
2018-11-12T19:41:28.933Z,20.72
2018-11-12T19:43:58.162Z,19.48
2018-11-12T19:46:27.419Z,19.62
2018-11-12T19:48:56.726Z,19.85
2018-11-12T19:51:50.333Z,20.32
2018-11-12T19:54:19.462Z,20.23
2018-11-12T19:56:48.488Z,20.17
2018-11-12T19:59:17.808Z,20.95
2018-11-12T20:01:47.148Z,21.75
2018-11-12T20:04:16.267Z,21.40
2018-11-12T20:06:45.569Z,21.35
2018-11-12T20:09:14.806Z,20.75
2018-11-12T20:11:44.139Z,20.55
2018-11-12T20:14:13.213Z,20.50
2018-11-12T20:16:42.447Z,19.57
2018-11-12T20:19:11.660Z,19.42
2018-11-12T20:21:40.910Z,19.17
2018-11-12T20:24:10.139Z,19.55
2018-11-12T20:26:39.354Z,18.52
2018-11-12T20:29:08.568Z,19.40
2018-11-12T20:31:37.924Z,18.73
2018-11-12T20:34:07.095Z,17.95
2018-11-12T20:36:36.226Z,18.70
2018-11-12T20:39:06.957Z,18.67
2018-11-12T20:41:36.180Z,18.10
2018-11-12T20:44:05.692Z,18.23
2018-11-12T20:46:34.652Z,19.10
2018-11-12T20:49:03.803Z,18.40
2018-11-12T20:51:33.149Z,18.35
2018-11-12T20:54:02.255Z,17.90
2018-11-12T20:56:31.210Z,18.95
2018-11-12T20:59:00.235Z,19.20
2018-11-12T21:01:29.304Z,20.43
2018-11-12T21:03:58.774Z,20.32
2018-11-12T21:06:27.918Z,19.85
2018-11-12T21:08:57.185Z,19.70
2018-11-12T21:11:26.441Z,20.02
2018-11-12T21:13:55.517Z,20.43
2018-11-12T21:16:24.716Z,20.50
2018-11-12T21:18:53.836Z,22.35
2018-11-12T21:21:23.163Z,22.45
2018-11-12T21:23:52.410Z,21.87
2018-11-12T21:26:21.467Z,22.87
2018-11-12T21:28:51.081Z,24.15
2018-11-12T21:31:20.328Z,22.25
2018-11-12T21:33:49.540Z,22.77
2018-11-12T21:36:18.738Z,22.32
2018-11-12T21:38:47.945Z,21.82
2018-11-12T21:41:17.134Z,22.77
2018-11-12T21:43:46.251Z,24.63
2018-11-12T21:46:15.515Z,23.50
2018-11-12T21:48:44.745Z,23.25
2018-11-12T21:51:13.915Z,24.60
2018-11-12T21:53:43.129Z,23.85
2018-11-12T21:56:12.354Z,24.02
2018-11-12T21:58:41.757Z,24.02
2018-11-12T22:01:10.933Z,23.32
2018-11-12T22:03:40.195Z,25.92
2018-11-12T22:06:09.514Z,24.95
2018-11-12T22:08:38.978Z,23.27
2018-11-12T22:11:08.130Z,24.65
2018-11-12T22:13:37.424Z,24.07
2018-11-12T22:16:07.112Z,24.55
2018-11-12T22:18:36.519Z,24.70
2018-11-12T22:21:05.609Z,27.62
2018-11-12T22:23:34.801Z,33.45
2018-11-12T22:26:03.860Z,32.45
2018-11-12T22:28:33.440Z,33.73
2018-11-12T22:31:02.628Z,34.43
2018-11-12T22:33:31.837Z,33.73
2018-11-12T22:36:00.903Z,31.30
2018-11-12T22:38:29.891Z,29.00
2018-11-12T22:40:59.315Z,28.27
2018-11-12T22:43:28.539Z,26.70
2018-11-12T22:45:57.689Z,25.50
2018-11-12T22:48:27.012Z,25.68
2018-11-12T22:50:56.191Z,24.43
2018-11-12T22:53:25.512Z,24.05
2018-11-12T22:55:54.703Z,23.87
2018-11-12T22:58:24.093Z,24.18
2018-11-12T23:00:53.302Z,23.27
2018-11-12T23:03:22.276Z,22.73
2018-11-12T23:05:55.534Z,22.65
2018-11-12T23:08:25.070Z,23.62
2018-11-12T23:10:55.808Z,22.55
2018-11-12T23:13:25.028Z,21.70
2018-11-12T23:15:54.179Z,23.22
2018-11-12T23:18:23.365Z,23.90
2018-11-12T23:20:52.783Z,25.12
2018-11-12T23:23:21.725Z,25.05
2018-11-12T23:25:50.695Z,25.75
2018-11-12T23:28:19.910Z,26.15
2018-11-12T23:30:49.095Z,26.23
2018-11-12T23:33:18.179Z,26.02
2018-11-12T23:35:48.229Z,24.30
2018-11-12T23:38:17.389Z,25.37
2018-11-12T23:40:46.488Z,26.45
2018-11-12T23:43:15.702Z,28.15
2018-11-12T23:45:44.990Z,31.65
2018-11-12T23:48:14.174Z,31.25
2018-11-12T23:50:43.293Z,33.60
2018-11-12T23:53:12.582Z,34.15
2018-11-12T23:55:41.841Z,34.60
2018-11-12T23:58:11.000Z,35.38
